Terminal Aerodrome Forecast
Issued by NWS

Home | Current Version | Previous Version | Graphics & Text | Print | Product List | Glossary On
Versions: 1 2 3 4 5 6 7 8 9 10 11 12 13 14 15 16 17
000
FTUS41 KCLE 171100 CCA
TAFFDY
TAF COR
KFDY 171150Z 1712/1812 31006KT 2SM BR SCT002
      TEMPO 1712/1713 3/4SM BR BKN002
     FM171300 33005KT 4SM BR SCT008
     FM171400 33006KT P6SM SKC
     FM180000 VRB03KT P6SM SKC=

USA.gov is the U.S. government's official web portal to all federal, state and local government web resources and services.